createdAt,value
2019-01-16T00:01:27.456Z,14.00
2019-01-16T00:04:12.264Z,13.97
2019-01-16T00:07:10.359Z,11.07
2019-01-16T00:10:05.364Z,11.90
2019-01-16T00:12:50.586Z,11.43
2019-01-16T00:15:35.298Z,10.97
2019-01-16T00:18:34.174Z,11.50
2019-01-16T00:21:23.443Z,10.30
2019-01-16T00:24:27.783Z,8.97
2019-01-16T00:27:26.297Z,7.43
2019-01-16T00:30:24.989Z,7.77
2019-01-16T00:33:09.055Z,8.03
2019-01-16T00:35:57.271Z,6.40
2019-01-16T00:38:52.730Z,6.00
2019-01-16T00:41:41.037Z,5.90
2019-01-16T00:44:48.522Z,5.93
2019-01-16T00:47:40.518Z,4.20
2019-01-16T00:50:48.052Z,5.00
2019-01-16T00:53:27.675Z,4.33
2019-01-16T00:56:05.780Z,4.80
2019-01-16T00:58:53.065Z,5.57
2019-01-16T01:01:31.975Z,4.60
2019-01-16T01:04:19.198Z,4.37
2019-01-16T01:07:14.703Z,4.20
2019-01-16T01:10:19.208Z,4.73
2019-01-16T01:12:58.780Z,4.47
2019-01-16T01:15:51.036Z,4.53
2019-01-16T01:18:40.823Z,3.90
2019-01-16T01:21:24.547Z,5.23
2019-01-16T01:24:13.838Z,4.80
2019-01-16T01:27:15.187Z,4.17
2019-01-16T01:29:55.519Z,4.50
2019-01-16T01:32:50.299Z,4.40
2019-01-16T01:35:42.347Z,4.40
2019-01-16T01:38:31.656Z,5.07
2019-01-16T01:41:33.926Z,5.03
2019-01-16T01:44:29.231Z,4.47
2019-01-16T01:47:18.430Z,5.03
2019-01-16T01:50:05.701Z,4.30
2019-01-16T01:53:00.910Z,4.23
2019-01-16T01:55:56.211Z,3.80
2019-01-16T01:58:38.657Z,4.83
2019-01-16T02:01:30.912Z,4.33
2019-01-16T02:04:20.099Z,4.70
2019-01-16T02:07:15.294Z,4.40
2019-01-16T02:09:53.549Z,3.80
2019-01-16T02:12:48.895Z,4.00
2019-01-16T02:15:36.933Z,3.93
2019-01-16T02:18:26.179Z,3.80
2019-01-16T02:21:24.529Z,3.60
2019-01-16T02:24:13.948Z,4.40
2019-01-16T02:27:02.648Z,4.23
2019-01-16T02:29:52.710Z,4.03
2019-01-16T02:32:41.886Z,4.17
2019-01-16T02:35:42.942Z,4.07
2019-01-16T02:38:31.497Z,3.57
2019-01-16T02:41:29.856Z,3.70
2019-01-16T02:44:19.049Z,3.73
2019-01-16T02:47:08.421Z,3.57
2019-01-16T02:49:54.874Z,3.23
2019-01-16T02:52:46.001Z,3.07
2019-01-16T02:55:25.882Z,3.33
2019-01-16T02:58:17.825Z,2.90
2019-01-16T03:01:13.141Z,2.90
2019-01-16T03:04:11.471Z,2.80
2019-01-16T03:07:01.006Z,2.87
2019-01-16T03:09:59.072Z,2.63
2019-01-16T03:12:48.387Z,3.03
2019-01-16T03:15:37.834Z,2.93
2019-01-16T03:18:25.607Z,3.20
2019-01-16T03:21:13.963Z,3.10
2019-01-16T03:24:03.277Z,3.30
2019-01-16T03:26:39.564Z,3.20
2019-01-16T03:29:19.714Z,3.07
2019-01-16T03:32:11.157Z,2.83
2019-01-16T03:34:58.991Z,3.70
2019-01-16T03:37:48.253Z,3.10
2019-01-16T03:40:38.159Z,3.00
2019-01-16T03:43:26.142Z,3.07
2019-01-16T03:46:15.439Z,3.03
2019-01-16T03:49:16.336Z,3.00
2019-01-16T03:51:59.483Z,3.47
2019-01-16T03:54:57.699Z,3.43
2019-01-16T03:58:01.930Z,2.97
2019-01-16T04:00:51.098Z,2.80
2019-01-16T04:03:54.002Z,2.90
2019-01-16T04:06:41.847Z,3.03
2019-01-16T04:09:29.431Z,2.60
2019-01-16T04:12:18.739Z,3.10
2019-01-16T04:15:17.159Z,2.90
2019-01-16T04:18:06.965Z,3.07
2019-01-16T04:20:59.275Z,3.30
2019-01-16T04:23:47.054Z,3.13
2019-01-16T04:26:33.731Z,3.07
2019-01-16T04:29:14.839Z,3.30
2019-01-16T04:32:22.048Z,3.00
2019-01-16T04:35:10.241Z,2.50
2019-01-16T04:37:59.513Z,2.97
2019-01-16T04:40:52.342Z,2.73
2019-01-16T04:43:56.984Z,2.83
2019-01-16T04:46:47.273Z,3.00
2019-01-16T04:49:30.200Z,3.10
2019-01-16T04:52:18.819Z,3.20
2019-01-16T04:55:17.234Z,3.00
2019-01-16T04:58:05.392Z,3.13
2019-01-16T05:01:00.866Z,3.17
2019-01-16T05:03:48.866Z,3.60
2019-01-16T05:06:41.047Z,3.80
2019-01-16T05:09:28.828Z,3.83
2019-01-16T05:12:16.674Z,4.33
2019-01-16T05:14:56.612Z,4.50
2019-01-16T05:17:51.793Z,4.40
2019-01-16T05:20:47.109Z,5.03
2019-01-16T05:23:31.252Z,5.30
2019-01-16T05:26:27.739Z,4.87
2019-01-16T05:29:19.807Z,4.30
2019-01-16T05:32:11.947Z,4.40
2019-01-16T05:34:59.596Z,4.70
2019-01-16T05:37:44.459Z,4.60
2019-01-16T05:40:32.541Z,4.60
2019-01-16T05:43:19.216Z,4.97
2019-01-16T05:46:17.292Z,4.80
2019-01-16T05:49:04.912Z,4.90
2019-01-16T05:51:52.467Z,5.03
2019-01-16T05:54:34.912Z,5.40
2019-01-16T05:57:33.171Z,5.10
2019-01-16T06:00:21.978Z,5.00
2019-01-16T06:03:11.872Z,4.63
2019-01-16T06:05:59.495Z,5.60
2019-01-16T06:08:49.863Z,5.63
2019-01-16T06:11:34.017Z,5.30
2019-01-16T06:14:33.066Z,5.67
2019-01-16T06:17:34.293Z,6.57
2019-01-16T06:20:37.877Z,6.37
2019-01-16T06:23:27.065Z,7.83
2019-01-16T06:26:16.266Z,7.90
2019-01-16T06:29:05.387Z,9.37
2019-01-16T06:31:55.330Z,9.23
2019-01-16T06:34:35.116Z,8.80
2019-01-16T06:37:24.466Z,9.07
2019-01-16T06:40:04.449Z,8.97
2019-01-16T06:42:45.364Z,11.17
2019-01-16T06:45:31.833Z,11.27
2019-01-16T06:48:19.718Z,9.73
2019-01-16T06:51:17.686Z,8.33
2019-01-16T06:54:05.346Z,9.80
2019-01-16T06:57:00.483Z,14.97
2019-01-16T06:59:58.488Z,24.47
2019-01-16T07:02:53.663Z,25.20
2019-01-16T07:05:46.050Z,23.57
2019-01-16T07:08:33.844Z,23.83
2019-01-16T07:11:13.009Z,22.80
2019-01-16T07:14:05.037Z,18.93
2019-01-16T07:17:03.094Z,19.60
2019-01-16T07:19:52.489Z,18.10
2019-01-16T07:22:52.090Z,16.77
2019-01-16T07:25:53.325Z,12.43
2019-01-16T07:28:51.774Z,11.60
2019-01-16T07:31:39.117Z,10.10
2019-01-16T07:34:34.022Z,11.23
2019-01-16T07:37:25.994Z,17.83
2019-01-16T07:40:07.021Z,16.40
2019-01-16T07:43:05.323Z,16.77
2019-01-16T07:46:09.506Z,11.73
2019-01-16T07:48:48.874Z,6.87
2019-01-16T07:51:37.954Z,7.53
2019-01-16T07:54:22.313Z,6.63
2019-01-16T07:57:29.567Z,6.50
2019-01-16T08:00:12.998Z,6.60
2019-01-16T08:03:02.299Z,6.40
2019-01-16T08:06:03.758Z,5.57
2019-01-16T08:08:52.263Z,7.23
2019-01-16T08:11:39.686Z,6.97
2019-01-16T08:14:44.002Z,6.00
2019-01-16T08:17:45.081Z,5.93
2019-01-16T08:20:32.803Z,5.83
2019-01-16T08:23:20.162Z,6.40
2019-01-16T08:26:07.847Z,5.83
2019-01-16T08:28:48.380Z,5.33
2019-01-16T08:31:36.218Z,5.40
2019-01-16T08:34:28.153Z,5.00
2019-01-16T08:37:23.093Z,7.23
2019-01-16T08:40:22.828Z,5.63
2019-01-16T08:43:15.068Z,6.23
2019-01-16T08:46:02.815Z,6.70
2019-01-16T08:48:45.410Z,6.93
2019-01-16T08:51:28.830Z,10.07
2019-01-16T08:54:16.421Z,10.60
2019-01-16T08:57:06.015Z,8.60
2019-01-16T08:59:53.602Z,8.17
2019-01-16T09:02:51.661Z,10.53
2019-01-16T09:05:39.582Z,11.37
2019-01-16T09:08:28.738Z,9.40
2019-01-16T09:11:30.679Z,7.03
2019-01-16T09:14:18.454Z,6.37
2019-01-16T09:16:57.383Z,7.17
2019-01-16T09:19:34.405Z,8.53
2019-01-16T09:22:29.629Z,10.97
2019-01-16T09:25:17.250Z,16.50
2019-01-16T09:28:01.422Z,16.80
2019-01-16T09:30:53.363Z,18.40
2019-01-16T09:33:41.105Z,19.50
2019-01-16T09:36:42.002Z,20.10
2019-01-16T09:39:33.914Z,15.53
2019-01-16T09:42:21.653Z,20.30
2019-01-16T09:45:10.782Z,18.97
2019-01-16T09:48:09.158Z,20.07
2019-01-16T09:51:04.280Z,14.93
2019-01-16T09:53:50.969Z,13.73
2019-01-16T09:56:44.599Z,14.40
2019-01-16T09:59:29.102Z,14.40
2019-01-16T10:02:24.134Z,16.57
2019-01-16T10:05:19.184Z,18.77
2019-01-16T10:08:26.569Z,20.30
2019-01-16T10:11:13.870Z,23.57
2019-01-16T10:14:09.826Z,28.03
2019-01-16T10:16:54.194Z,27.10
2019-01-16T10:19:51.604Z,34.03
2019-01-16T10:22:38.050Z,36.20
2019-01-16T10:25:28.951Z,33.70
2019-01-16T10:28:23.842Z,31.17
2019-01-16T10:31:18.923Z,29.80
2019-01-16T10:34:06.878Z,26.47
2019-01-16T10:37:02.027Z,26.23
2019-01-16T10:39:49.618Z,30.63
2019-01-16T10:42:44.697Z,31.33
2019-01-16T10:45:32.287Z,30.83
2019-01-16T10:48:22.166Z,32.17
2019-01-16T10:51:04.479Z,32.80
2019-01-16T10:53:53.673Z,30.17
2019-01-16T10:56:36.700Z,28.23
2019-01-16T10:59:31.358Z,26.93
2019-01-16T11:02:32.749Z,25.77
2019-01-16T11:05:22.001Z,30.43
2019-01-16T11:08:16.866Z,37.03
2019-01-16T11:10:59.505Z,33.53
2019-01-16T11:13:45.729Z,33.07
2019-01-16T11:16:34.927Z,31.83
2019-01-16T11:19:42.185Z,32.57
2019-01-16T11:22:25.141Z,27.43
2019-01-16T11:25:13.080Z,28.40
2019-01-16T11:28:05.351Z,29.53
2019-01-16T11:31:11.961Z,28.20
2019-01-16T11:34:06.722Z,29.77
2019-01-16T11:37:14.250Z,28.00
2019-01-16T11:40:04.838Z,28.37
2019-01-16T11:42:55.270Z,27.77
2019-01-16T11:45:33.355Z,29.00
2019-01-16T11:48:40.721Z,32.33
2019-01-16T11:51:33.756Z,30.87
2019-01-16T11:54:30.735Z,29.70
2019-01-16T11:57:25.119Z,25.47
2019-01-16T12:00:23.312Z,27.10
2019-01-16T12:03:26.233Z,26.87
2019-01-16T12:06:14.528Z,25.30
2019-01-16T12:09:18.694Z,25.83
2019-01-16T12:12:11.225Z,26.13
2019-01-16T12:14:58.139Z,25.60
2019-01-16T12:18:00.077Z,25.73
2019-01-16T12:20:49.186Z,27.73
2019-01-16T12:23:39.474Z,25.00
2019-01-16T12:26:28.785Z,24.23
2019-01-16T12:29:16.866Z,22.83
2019-01-16T12:32:08.829Z,21.67
2019-01-16T12:34:57.957Z,22.90
2019-01-16T12:37:45.493Z,20.93
2019-01-16T12:40:52.749Z,21.23
2019-01-16T12:43:44.647Z,20.43
2019-01-16T12:46:45.821Z,21.03
2019-01-16T12:49:31.602Z,21.70
2019-01-16T12:52:32.974Z,19.90
2019-01-16T12:55:25.730Z,22.10
2019-01-16T12:58:13.573Z,22.80
2019-01-16T13:01:08.962Z,22.63
2019-01-16T13:04:04.335Z,22.33
2019-01-16T13:06:56.084Z,25.77
2019-01-16T13:09:54.389Z,25.70
2019-01-16T13:12:43.530Z,27.07
2019-01-16T13:15:32.662Z,25.47
2019-01-16T13:18:20.131Z,25.60
2019-01-16T13:21:03.817Z,28.57
2019-01-16T13:23:55.674Z,29.80
2019-01-16T13:26:43.163Z,31.33
2019-01-16T13:29:27.857Z,31.03
2019-01-16T13:32:28.949Z,32.57
2019-01-16T13:35:18.267Z,31.90
2019-01-16T13:38:22.628Z,33.27
2019-01-16T13:41:10.578Z,31.97
2019-01-16T13:43:59.693Z,32.57
2019-01-16T13:46:43.323Z,34.40
2019-01-16T13:49:31.044Z,35.60
2019-01-16T13:52:09.813Z,38.47
2019-01-16T13:55:11.317Z,41.73
2019-01-16T13:57:59.070Z,45.47
2019-01-16T14:00:48.479Z,47.83
2019-01-16T14:03:48.858Z,40.23
2019-01-16T14:06:34.322Z,42.00
2019-01-16T14:09:34.615Z,41.63
2019-01-16T14:12:22.611Z,40.63
2019-01-16T14:15:10.677Z,39.80
2019-01-16T14:18:02.569Z,39.60
2019-01-16T14:20:48.486Z,37.30
2019-01-16T14:23:36.190Z,38.50
2019-01-16T14:26:34.706Z,42.50
2019-01-16T14:29:32.957Z,39.87
2019-01-16T14:32:20.727Z,38.63
2019-01-16T14:35:21.927Z,38.53
2019-01-16T14:38:10.715Z,39.27
2019-01-16T14:40:48.637Z,34.97
2019-01-16T14:43:46.387Z,39.83
2019-01-16T14:46:51.202Z,47.43
2019-01-16T14:49:49.457Z,43.77
2019-01-16T14:52:44.590Z,42.43
2019-01-16T14:55:36.514Z,43.23
2019-01-16T14:58:31.257Z,40.23
2019-01-16T15:01:24.046Z,79.40
2019-01-16T15:04:16.194Z,52.30
2019-01-16T15:07:00.093Z,55.83
2019-01-16T15:09:49.092Z,48.90
2019-01-16T15:12:56.330Z,52.30
2019-01-16T15:15:51.410Z,46.90
2019-01-16T15:18:45.682Z,48.13
2019-01-16T15:21:53.998Z,50.53
2019-01-16T15:24:55.010Z,62.97
2019-01-16T15:27:41.423Z,58.43
2019-01-16T15:30:35.641Z,58.93
2019-01-16T15:33:24.958Z,60.13
2019-01-16T15:36:13.834Z,59.63
2019-01-16T15:39:05.858Z,56.33
2019-01-16T15:41:54.989Z,54.83
2019-01-16T15:44:44.090Z,55.27
2019-01-16T15:47:51.806Z,57.80
2019-01-16T15:50:39.695Z,57.43
2019-01-16T15:53:19.361Z,66.30
2019-01-16T15:56:07.683Z,63.60
2019-01-16T15:59:00.525Z,57.60
2019-01-16T16:01:48.239Z,59.63
2019-01-16T16:04:26.909Z,55.40
2019-01-16T16:07:16.543Z,53.40
2019-01-16T16:10:04.041Z,52.00
2019-01-16T16:13:11.316Z,54.63
2019-01-16T16:15:50.856Z,54.07
2019-01-16T16:18:48.883Z,54.63
2019-01-16T16:21:46.871Z,54.53
2019-01-16T16:24:39.314Z,55.60
2019-01-16T16:27:21.866Z,59.00
2019-01-16T16:30:23.441Z,61.73
2019-01-16T16:33:11.945Z,59.07
2019-01-16T16:36:00.010Z,54.73
2019-01-16T16:38:48.126Z,53.53
2019-01-16T16:41:36.155Z,54.40
2019-01-16T16:44:40.776Z,56.60
2019-01-16T16:47:45.639Z,58.80
2019-01-16T16:50:29.265Z,64.83
2019-01-16T16:53:18.549Z,56.90
2019-01-16T16:56:06.557Z,53.17
2019-01-16T16:58:54.609Z,56.70
2019-01-16T17:01:46.596Z,57.97
2019-01-16T17:04:34.473Z,55.37
2019-01-16T17:07:29.865Z,51.57
2019-01-16T17:10:31.149Z,50.20
2019-01-16T17:13:12.270Z,48.40
2019-01-16T17:16:13.475Z,47.50
2019-01-16T17:19:13.812Z,47.13
2019-01-16T17:22:03.099Z,46.93
2019-01-16T17:24:50.850Z,48.23
2019-01-16T17:27:43.879Z,60.13
2019-01-16T17:30:32.030Z,56.13
2019-01-16T17:33:28.509Z,52.83
2019-01-16T17:36:06.938Z,55.10
2019-01-16T17:38:51.773Z,54.10
2019-01-16T17:41:29.258Z,51.50
2019-01-16T17:44:30.688Z,51.40
2019-01-16T17:47:25.775Z,50.03
2019-01-16T17:50:13.809Z,50.03
2019-01-16T17:53:00.263Z,48.17
2019-01-16T17:55:40.505Z,48.17
2019-01-16T17:58:35.498Z,50.83
2019-01-16T18:01:23.821Z,48.43
2019-01-16T18:04:14.189Z,52.73
2019-01-16T18:07:16.515Z,58.50
2019-01-16T18:10:10.567Z,53.97
2019-01-16T18:13:05.481Z,56.87
2019-01-16T18:16:03.865Z,53.90
2019-01-16T18:19:04.830Z,54.53
2019-01-16T18:21:56.559Z,52.40
2019-01-16T18:24:48.581Z,50.97
2019-01-16T18:27:38.748Z,49.63
2019-01-16T18:30:43.795Z,51.03
2019-01-16T18:33:39.009Z,57.37
2019-01-16T18:36:43.178Z,53.30
2019-01-16T18:39:29.426Z,54.73
2019-01-16T18:42:36.922Z,55.70
2019-01-16T18:45:26.721Z,61.23
2019-01-16T18:48:14.477Z,63.97
2019-01-16T18:51:02.148Z,65.60
2019-01-16T18:53:49.623Z,62.83
2019-01-16T18:56:38.754Z,58.07
2019-01-16T18:59:30.946Z,53.60
2019-01-16T19:02:20.102Z,51.97
2019-01-16T19:05:08.234Z,50.23
2019-01-16T19:07:55.996Z,51.57
2019-01-16T19:10:48.018Z,50.17
2019-01-16T19:13:38.776Z,49.70
2019-01-16T19:16:43.165Z,52.43
2019-01-16T19:19:30.845Z,53.07
2019-01-16T19:22:25.677Z,48.97
2019-01-16T19:25:17.729Z,52.57
2019-01-16T19:27:59.308Z,49.47
2019-01-16T19:30:48.857Z,50.77
2019-01-16T19:33:30.173Z,49.30
2019-01-16T19:36:09.645Z,48.53
2019-01-16T19:38:58.869Z,48.73
2019-01-16T19:42:00.807Z,48.07
2019-01-16T19:44:56.152Z,46.10
2019-01-16T19:47:44.899Z,43.17
2019-01-16T19:50:34.333Z,48.30
2019-01-16T19:53:22.310Z,47.10
2019-01-16T19:56:09.834Z,46.07
2019-01-16T19:59:04.137Z,46.20
2019-01-16T20:01:54.450Z,45.57
2019-01-16T20:04:52.985Z,47.60
2019-01-16T20:07:33.370Z,45.93
2019-01-16T20:10:22.046Z,44.50
2019-01-16T20:13:13.071Z,47.00
2019-01-16T20:16:00.201Z,46.43
2019-01-16T20:18:49.475Z,45.47
2019-01-16T20:21:32.458Z,43.30
2019-01-16T20:24:33.588Z,46.13
2019-01-16T20:27:21.584Z,44.93
2019-01-16T20:30:23.059Z,43.13
2019-01-16T20:33:13.365Z,46.10
2019-01-16T20:36:04.438Z,47.00
2019-01-16T20:38:54.589Z,45.80
2019-01-16T20:41:42.892Z,47.90
2019-01-16T20:44:32.021Z,46.27
2019-01-16T20:47:20.241Z,47.03
2019-01-16T20:50:06.877Z,48.40
2019-01-16T20:52:59.093Z,49.07
2019-01-16T20:55:57.778Z,48.80
2019-01-16T20:58:47.375Z,45.67
2019-01-16T21:01:42.583Z,49.57
2019-01-16T21:04:21.463Z,48.37
2019-01-16T21:06:59.525Z,49.17
2019-01-16T21:09:52.362Z,48.27
2019-01-16T21:12:57.056Z,47.07
2019-01-16T21:15:38.310Z,47.13
2019-01-16T21:18:33.411Z,47.47
2019-01-16T21:21:18.941Z,46.20
2019-01-16T21:24:03.662Z,47.70
2019-01-16T21:26:46.151Z,45.80
2019-01-16T21:29:43.739Z,45.67
2019-01-16T21:32:35.714Z,44.20
2019-01-16T21:35:24.493Z,43.43
2019-01-16T21:38:07.530Z,43.37
2019-01-16T21:41:08.793Z,45.23
2019-01-16T21:44:10.086Z,45.40
2019-01-16T21:47:17.549Z,44.70
2019-01-16T21:50:17.247Z,43.83
2019-01-16T21:53:15.850Z,44.97
2019-01-16T21:56:17.201Z,45.63
2019-01-16T21:59:09.407Z,43.43
2019-01-16T22:01:57.229Z,41.57
2019-01-16T22:04:46.510Z,42.27
2019-01-16T22:07:41.514Z,41.37
2019-01-16T22:10:36.480Z,40.67
2019-01-16T22:13:31.678Z,37.80
2019-01-16T22:16:35.946Z,39.93
2019-01-16T22:19:23.907Z,40.33
2019-01-16T22:22:12.398Z,41.30
2019-01-16T22:25:00.018Z,40.60
2019-01-16T22:27:46.202Z,37.70
2019-01-16T22:30:41.977Z,36.03
2019-01-16T22:33:25.995Z,35.70
2019-01-16T22:36:18.206Z,36.57
2019-01-16T22:39:28.384Z,37.60
2019-01-16T22:42:16.426Z,34.60
2019-01-16T22:44:54.257Z,35.40
2019-01-16T22:47:58.607Z,35.47
2019-01-16T22:50:46.583Z,32.80
2019-01-16T22:53:34.410Z,32.03
2019-01-16T22:56:35.984Z,32.80
2019-01-16T22:59:25.130Z,32.57
2019-01-16T23:02:14.163Z,31.13
2019-01-16T23:05:03.254Z,31.20
2019-01-16T23:07:50.921Z,31.33
2019-01-16T23:10:43.111Z,30.07
2019-01-16T23:13:31.162Z,29.03
2019-01-16T23:16:19.270Z,28.80
2019-01-16T23:19:07.073Z,29.47
2019-01-16T23:22:11.673Z,28.67
2019-01-16T23:25:18.995Z,29.53
2019-01-16T23:28:14.230Z,28.87
2019-01-16T23:31:15.304Z,28.43
2019-01-16T23:34:13.316Z,27.37
2019-01-16T23:36:56.309Z,27.73
2019-01-16T23:39:46.767Z,26.50
2019-01-16T23:42:54.310Z,26.90
2019-01-16T23:45:46.247Z,25.87
2019-01-16T23:48:34.237Z,26.70
2019-01-16T23:51:33.306Z,25.47
2019-01-16T23:54:28.395Z,26.27
2019-01-16T23:57:15.725Z,26.27
